sensor_id;sensor_type;location;lat;lon;timestamp;P1;durP1;ratioP1;P2;durP2;ratioP2
21424;SDS011;10873;51.132;16.848;2024-02-28T00:00:23;39.33;;;25.37;;
21424;SDS011;10873;51.132;16.848;2024-02-28T00:03:09;37.03;;;24.33;;
21424;SDS011;10873;51.132;16.848;2024-02-28T00:05:35;36.03;;;24.47;;
21424;SDS011;10873;51.132;16.848;2024-02-28T00:08:01;44.75;;;26.15;;
21424;SDS011;10873;51.132;16.848;2024-02-28T00:10:28;37.72;;;25.35;;
21424;SDS011;10873;51.132;16.848;2024-02-28T00:12:54;40.15;;;26.65;;
21424;SDS011;10873;51.132;16.848;2024-02-28T00:15:20;41.00;;;25.50;;
21424;SDS011;10873;51.132;16.848;2024-02-28T00:17:51;38.30;;;25.90;;
21424;SDS011;10873;51.132;16.848;2024-02-28T00:20:18;43.97;;;26.87;;
21424;SDS011;10873;51.132;16.848;2024-02-28T00:22:44;43.28;;;27.55;;
21424;SDS011;10873;51.132;16.848;2024-02-28T00:25:10;43.90;;;28.00;;
21424;SDS011;10873;51.132;16.848;2024-02-28T00:27:37;44.25;;;28.08;;
21424;SDS011;10873;51.132;16.848;2024-02-28T00:30:03;43.13;;;28.48;;
21424;SDS011;10873;51.132;16.848;2024-02-28T00:32:32;45.13;;;28.53;;
21424;SDS011;10873;51.132;16.848;2024-02-28T00:34:58;47.17;;;29.77;;
21424;SDS011;10873;51.132;16.848;2024-02-28T00:37:25;46.23;;;29.27;;
21424;SDS011;10873;51.132;16.848;2024-02-28T00:39:51;47.27;;;28.80;;
21424;SDS011;10873;51.132;16.848;2024-02-28T00:42:17;45.50;;;29.43;;
21424;SDS011;10873;51.132;16.848;2024-02-28T00:44:43;45.60;;;28.10;;
21424;SDS011;10873;51.132;16.848;2024-02-28T00:47:10;45.60;;;28.50;;
21424;SDS011;10873;51.132;16.848;2024-02-28T00:49:36;45.28;;;28.15;;
21424;SDS011;10873;51.132;16.848;2024-02-28T00:52:03;47.38;;;29.67;;
21424;SDS011;10873;51.132;16.848;2024-02-28T00:54:31;49.28;;;29.77;;
21424;SDS011;10873;51.132;16.848;2024-02-28T00:56:58;46.97;;;29.58;;
21424;SDS011;10873;51.132;16.848;2024-02-28T00:59:25;44.83;;;29.17;;
21424;SDS011;10873;51.132;16.848;2024-02-28T01:01:52;52.33;;;29.77;;
21424;SDS011;10873;51.132;16.848;2024-02-28T01:04:18;50.47;;;29.65;;
21424;SDS011;10873;51.132;16.848;2024-02-28T01:06:44;49.38;;;29.42;;
21424;SDS011;10873;51.132;16.848;2024-02-28T01:09:11;44.85;;;29.58;;
21424;SDS011;10873;51.132;16.848;2024-02-28T01:11:40;48.20;;;30.80;;
21424;SDS011;10873;51.132;16.848;2024-02-28T01:14:07;51.00;;;30.93;;
21424;SDS011;10873;51.132;16.848;2024-02-28T01:16:34;51.37;;;30.40;;
21424;SDS011;10873;51.132;16.848;2024-02-28T01:19:00;53.10;;;29.83;;
21424;SDS011;10873;51.132;16.848;2024-02-28T01:21:28;50.97;;;29.77;;
21424;SDS011;10873;51.132;16.848;2024-02-28T01:23:55;54.70;;;31.20;;
21424;SDS011;10873;51.132;16.848;2024-02-28T01:26:23;50.53;;;31.70;;
21424;SDS011;10873;51.132;16.848;2024-02-28T01:28:49;54.20;;;31.70;;
21424;SDS011;10873;51.132;16.848;2024-02-28T01:31:15;58.47;;;32.50;;
21424;SDS011;10873;51.132;16.848;2024-02-28T01:33:42;56.42;;;32.55;;
21424;SDS011;10873;51.132;16.848;2024-02-28T01:36:08;56.67;;;32.00;;
21424;SDS011;10873;51.132;16.848;2024-02-28T01:38:36;56.17;;;32.27;;
21424;SDS011;10873;51.132;16.848;2024-02-28T01:41:03;56.92;;;32.70;;
21424;SDS011;10873;51.132;16.848;2024-02-28T01:43:31;56.30;;;32.57;;
21424;SDS011;10873;51.132;16.848;2024-02-28T01:46:00;60.33;;;31.70;;
21424;SDS011;10873;51.132;16.848;2024-02-28T01:48:29;63.00;;;32.93;;
21424;SDS011;10873;51.132;16.848;2024-02-28T01:50:55;56.92;;;31.67;;
21424;SDS011;10873;51.132;16.848;2024-02-28T01:53:23;61.75;;;33.15;;
21424;SDS011;10873;51.132;16.848;2024-02-28T01:55:49;64.03;;;33.90;;
21424;SDS011;10873;51.132;16.848;2024-02-28T01:58:17;61.70;;;32.70;;
21424;SDS011;10873;51.132;16.848;2024-02-28T02:00:45;62.88;;;34.13;;
21424;SDS011;10873;51.132;16.848;2024-02-28T02:03:13;60.40;;;32.60;;
21424;SDS011;10873;51.132;16.848;2024-02-28T02:05:41;62.40;;;33.20;;
21424;SDS011;10873;51.132;16.848;2024-02-28T02:08:07;62.33;;;33.00;;
21424;SDS011;10873;51.132;16.848;2024-02-28T02:10:34;67.37;;;32.70;;
21424;SDS011;10873;51.132;16.848;2024-02-28T02:13:04;66.50;;;33.43;;
21424;SDS011;10873;51.132;16.848;2024-02-28T02:15:30;63.13;;;32.80;;
21424;SDS011;10873;51.132;16.848;2024-02-28T02:17:57;61.77;;;33.00;;
21424;SDS011;10873;51.132;16.848;2024-02-28T02:20:23;64.57;;;33.85;;
21424;SDS011;10873;51.132;16.848;2024-02-28T02:22:54;67.97;;;32.30;;
21424;SDS011;10873;51.132;16.848;2024-02-28T02:25:20;62.90;;;31.92;;
21424;SDS011;10873;51.132;16.848;2024-02-28T02:27:48;66.40;;;33.53;;
21424;SDS011;10873;51.132;16.848;2024-02-28T02:30:14;67.13;;;33.20;;
21424;SDS011;10873;51.132;16.848;2024-02-28T02:32:41;65.27;;;32.90;;
21424;SDS011;10873;51.132;16.848;2024-02-28T02:35:09;70.20;;;32.53;;
21424;SDS011;10873;51.132;16.848;2024-02-28T02:37:40;66.97;;;33.60;;
21424;SDS011;10873;51.132;16.848;2024-02-28T02:40:14;64.93;;;32.90;;
21424;SDS011;10873;51.132;16.848;2024-02-28T02:42:40;64.55;;;33.15;;
21424;SDS011;10873;51.132;16.848;2024-02-28T02:45:07;63.40;;;32.87;;
21424;SDS011;10873;51.132;16.848;2024-02-28T02:47:34;64.70;;;32.83;;
21424;SDS011;10873;51.132;16.848;2024-02-28T02:50:05;66.33;;;33.07;;
21424;SDS011;10873;51.132;16.848;2024-02-28T02:52:32;64.87;;;33.50;;
21424;SDS011;10873;51.132;16.848;2024-02-28T02:54:58;62.67;;;32.37;;
21424;SDS011;10873;51.132;16.848;2024-02-28T02:57:33;61.60;;;32.60;;
21424;SDS011;10873;51.132;16.848;2024-02-28T02:59:59;59.65;;;31.50;;
21424;SDS011;10873;51.132;16.848;2024-02-28T03:02:25;62.20;;;32.67;;
21424;SDS011;10873;51.132;16.848;2024-02-28T03:04:52;61.83;;;32.42;;
21424;SDS011;10873;51.132;16.848;2024-02-28T03:07:18;67.93;;;33.97;;
21424;SDS011;10873;51.132;16.848;2024-02-28T03:09:44;60.43;;;32.27;;
21424;SDS011;10873;51.132;16.848;2024-02-28T03:12:13;63.10;;;33.13;;
21424;SDS011;10873;51.132;16.848;2024-02-28T03:14:40;61.27;;;31.80;;
21424;SDS011;10873;51.132;16.848;2024-02-28T03:17:06;60.33;;;32.27;;
21424;SDS011;10873;51.132;16.848;2024-02-28T03:19:34;60.97;;;32.17;;
21424;SDS011;10873;51.132;16.848;2024-02-28T03:22:02;57.87;;;31.57;;
21424;SDS011;10873;51.132;16.848;2024-02-28T03:24:28;62.17;;;31.63;;
21424;SDS011;10873;51.132;16.848;2024-02-28T03:26:54;59.83;;;31.87;;
21424;SDS011;10873;51.132;16.848;2024-02-28T03:29:21;58.53;;;31.30;;
21424;SDS011;10873;51.132;16.848;2024-02-28T03:31:48;55.30;;;31.20;;
21424;SDS011;10873;51.132;16.848;2024-02-28T03:34:15;55.90;;;31.80;;
21424;SDS011;10873;51.132;16.848;2024-02-28T03:36:41;55.37;;;30.37;;
21424;SDS011;10873;51.132;16.848;2024-02-28T03:39:08;58.13;;;31.80;;
21424;SDS011;10873;51.132;16.848;2024-02-28T03:41:35;59.22;;;31.48;;
21424;SDS011;10873;51.132;16.848;2024-02-28T03:44:01;60.42;;;32.13;;
21424;SDS011;10873;51.132;16.848;2024-02-28T03:46:27;61.77;;;31.40;;
21424;SDS011;10873;51.132;16.848;2024-02-28T03:48:54;60.92;;;31.65;;
21424;SDS011;10873;51.132;16.848;2024-02-28T03:51:20;58.07;;;31.60;;
21424;SDS011;10873;51.132;16.848;2024-02-28T03:53:47;57.72;;;30.58;;
21424;SDS011;10873;51.132;16.848;2024-02-28T03:56:13;60.17;;;31.87;;
21424;SDS011;10873;51.132;16.848;2024-02-28T03:58:47;57.33;;;30.50;;
21424;SDS011;10873;51.132;16.848;2024-02-28T04:01:13;56.50;;;29.97;;
21424;SDS011;10873;51.132;16.848;2024-02-28T04:03:39;57.93;;;31.00;;
21424;SDS011;10873;51.132;16.848;2024-02-28T04:06:09;56.33;;;30.67;;
21424;SDS011;10873;51.132;16.848;2024-02-28T04:08:36;59.43;;;30.97;;
21424;SDS011;10873;51.132;16.848;2024-02-28T04:11:02;60.37;;;30.27;;
21424;SDS011;10873;51.132;16.848;2024-02-28T04:13:29;57.80;;;29.83;;
21424;SDS011;10873;51.132;16.848;2024-02-28T04:15:55;61.00;;;31.90;;
21424;SDS011;10873;51.132;16.848;2024-02-28T04:18:21;58.20;;;30.10;;
21424;SDS011;10873;51.132;16.848;2024-02-28T04:20:47;61.27;;;30.87;;
21424;SDS011;10873;51.132;16.848;2024-02-28T04:23:14;58.37;;;31.53;;
21424;SDS011;10873;51.132;16.848;2024-02-28T04:25:40;56.17;;;30.50;;
21424;SDS011;10873;51.132;16.848;2024-02-28T04:28:06;55.97;;;30.33;;
21424;SDS011;10873;51.132;16.848;2024-02-28T04:30:35;55.70;;;30.30;;
21424;SDS011;10873;51.132;16.848;2024-02-28T04:33:02;52.37;;;28.37;;
21424;SDS011;10873;51.132;16.848;2024-02-28T04:35:30;54.33;;;29.33;;
21424;SDS011;10873;51.132;16.848;2024-02-28T04:37:56;52.70;;;30.00;;
21424;SDS011;10873;51.132;16.848;2024-02-28T04:40:23;47.23;;;27.67;;
21424;SDS011;10873;51.132;16.848;2024-02-28T04:42:50;48.97;;;27.03;;
21424;SDS011;10873;51.132;16.848;2024-02-28T04:45:16;44.33;;;26.30;;
21424;SDS011;10873;51.132;16.848;2024-02-28T04:47:44;44.03;;;26.37;;
21424;SDS011;10873;51.132;16.848;2024-02-28T04:50:11;40.87;;;24.27;;
21424;SDS011;10873;51.132;16.848;2024-02-28T04:52:39;40.00;;;23.77;;
21424;SDS011;10873;51.132;16.848;2024-02-28T04:55:05;39.53;;;24.20;;
21424;SDS011;10873;51.132;16.848;2024-02-28T04:57:35;40.27;;;23.53;;
21424;SDS011;10873;51.132;16.848;2024-02-28T05:00:04;40.10;;;24.07;;
21424;SDS011;10873;51.132;16.848;2024-02-28T05:02:31;36.83;;;22.50;;
21424;SDS011;10873;51.132;16.848;2024-02-28T05:04:57;38.93;;;23.00;;
21424;SDS011;10873;51.132;16.848;2024-02-28T05:07:24;37.47;;;22.17;;
21424;SDS011;10873;51.132;16.848;2024-02-28T05:09:50;33.97;;;21.70;;
21424;SDS011;10873;51.132;16.848;2024-02-28T05:12:17;36.23;;;20.63;;
21424;SDS011;10873;51.132;16.848;2024-02-28T05:14:44;31.47;;;20.43;;
21424;SDS011;10873;51.132;16.848;2024-02-28T05:17:11;33.17;;;20.03;;
21424;SDS011;10873;51.132;16.848;2024-02-28T05:19:39;29.77;;;19.63;;
21424;SDS011;10873;51.132;16.848;2024-02-28T05:22:06;30.00;;;19.30;;
21424;SDS011;10873;51.132;16.848;2024-02-28T05:24:32;28.33;;;18.13;;
21424;SDS011;10873;51.132;16.848;2024-02-28T05:27:00;28.75;;;19.80;;
21424;SDS011;10873;51.132;16.848;2024-02-28T05:29:27;27.17;;;18.37;;
21424;SDS011;10873;51.132;16.848;2024-02-28T05:31:56;25.03;;;17.67;;
21424;SDS011;10873;51.132;16.848;2024-02-28T05:34:22;29.57;;;18.77;;
21424;SDS011;10873;51.132;16.848;2024-02-28T05:36:50;26.33;;;17.77;;
21424;SDS011;10873;51.132;16.848;2024-02-28T05:39:16;26.95;;;17.65;;
21424;SDS011;10873;51.132;16.848;2024-02-28T05:41:42;26.80;;;17.77;;
21424;SDS011;10873;51.132;16.848;2024-02-28T05:44:08;26.55;;;17.90;;
21424;SDS011;10873;51.132;16.848;2024-02-28T05:46:35;27.43;;;17.30;;
21424;SDS011;10873;51.132;16.848;2024-02-28T05:49:03;22.70;;;15.80;;
21424;SDS011;10873;51.132;16.848;2024-02-28T05:51:29;27.67;;;17.57;;
21424;SDS011;10873;51.132;16.848;2024-02-28T05:53:55;23.47;;;15.77;;
21424;SDS011;10873;51.132;16.848;2024-02-28T05:56:21;23.53;;;16.50;;
21424;SDS011;10873;51.132;16.848;2024-02-28T05:58:47;23.70;;;16.23;;
21424;SDS011;10873;51.132;16.848;2024-02-28T06:01:15;22.95;;;15.68;;
21424;SDS011;10873;51.132;16.848;2024-02-28T06:03:42;22.47;;;15.17;;
21424;SDS011;10873;51.132;16.848;2024-02-28T06:06:11;23.97;;;15.93;;
21424;SDS011;10873;51.132;16.848;2024-02-28T06:08:38;20.83;;;14.50;;
21424;SDS011;10873;51.132;16.848;2024-02-28T06:11:06;21.80;;;15.27;;
21424;SDS011;10873;51.132;16.848;2024-02-28T06:13:32;20.48;;;13.88;;
21424;SDS011;10873;51.132;16.848;2024-02-28T06:15:58;22.17;;;14.40;;
21424;SDS011;10873;51.132;16.848;2024-02-28T06:18:25;19.13;;;13.70;;
21424;SDS011;10873;51.132;16.848;2024-02-28T06:20:52;20.03;;;13.60;;
21424;SDS011;10873;51.132;16.848;2024-02-28T06:23:20;18.93;;;12.27;;
21424;SDS011;10873;51.132;16.848;2024-02-28T06:25:47;18.70;;;13.60;;
21424;SDS011;10873;51.132;16.848;2024-02-28T06:28:13;21.53;;;13.13;;
21424;SDS011;10873;51.132;16.848;2024-02-28T06:30:39;17.80;;;12.33;;
21424;SDS011;10873;51.132;16.848;2024-02-28T06:33:07;18.80;;;12.97;;
21424;SDS011;10873;51.132;16.848;2024-02-28T06:35:38;16.47;;;12.17;;
21424;SDS011;10873;51.132;16.848;2024-02-28T06:38:04;16.75;;;11.63;;
21424;SDS011;10873;51.132;16.848;2024-02-28T06:40:32;17.20;;;11.77;;
21424;SDS011;10873;51.132;16.848;2024-02-28T06:42:58;15.20;;;11.10;;
21424;SDS011;10873;51.132;16.848;2024-02-28T06:45:25;15.83;;;11.60;;
21424;SDS011;10873;51.132;16.848;2024-02-28T06:47:51;15.57;;;11.50;;
21424;SDS011;10873;51.132;16.848;2024-02-28T06:50:18;16.90;;;11.60;;
21424;SDS011;10873;51.132;16.848;2024-02-28T06:52:44;15.93;;;11.57;;
21424;SDS011;10873;51.132;16.848;2024-02-28T06:55:10;15.07;;;11.00;;
21424;SDS011;10873;51.132;16.848;2024-02-28T06:57:37;14.60;;;10.53;;
21424;SDS011;10873;51.132;16.848;2024-02-28T07:00:05;14.13;;;10.57;;
21424;SDS011;10873;51.132;16.848;2024-02-28T07:02:33;13.60;;;10.43;;
21424;SDS011;10873;51.132;16.848;2024-02-28T07:05:00;14.57;;;10.83;;
21424;SDS011;10873;51.132;16.848;2024-02-28T07:07:26;15.23;;;10.87;;
21424;SDS011;10873;51.132;16.848;2024-02-28T07:09:53;14.40;;;10.27;;
21424;SDS011;10873;51.132;16.848;2024-02-28T07:12:19;14.90;;;11.30;;
21424;SDS011;10873;51.132;16.848;2024-02-28T07:14:46;16.60;;;11.07;;
21424;SDS011;10873;51.132;16.848;2024-02-28T07:17:13;14.83;;;11.17;;
21424;SDS011;10873;51.132;16.848;2024-02-28T07:19:39;16.45;;;11.02;;
21424;SDS011;10873;51.132;16.848;2024-02-28T07:22:07;14.30;;;10.40;;
21424;SDS011;10873;51.132;16.848;2024-02-28T07:24:33;14.10;;;10.27;;
21424;SDS011;10873;51.132;16.848;2024-02-28T07:27:02;14.43;;;10.50;;
21424;SDS011;10873;51.132;16.848;2024-02-28T07:29:29;14.33;;;10.53;;
21424;SDS011;10873;51.132;16.848;2024-02-28T07:31:59;13.83;;;10.40;;
21424;SDS011;10873;51.132;16.848;2024-02-28T07:34:28;14.73;;;10.07;;
21424;SDS011;10873;51.132;16.848;2024-02-28T07:36:54;15.27;;;10.15;;
21424;SDS011;10873;51.132;16.848;2024-02-28T07:39:25;12.60;;;9.20;;
21424;SDS011;10873;51.132;16.848;2024-02-28T07:41:51;13.55;;;9.45;;
21424;SDS011;10873;51.132;16.848;2024-02-28T07:44:17;14.15;;;10.15;;
21424;SDS011;10873;51.132;16.848;2024-02-28T07:46:45;14.30;;;9.80;;
21424;SDS011;10873;51.132;16.848;2024-02-28T07:49:13;13.45;;;9.48;;
21424;SDS011;10873;51.132;16.848;2024-02-28T07:51:41;13.20;;;9.70;;
21424;SDS011;10873;51.132;16.848;2024-02-28T07:54:07;14.55;;;8.90;;
21424;SDS011;10873;51.132;16.848;2024-02-28T07:56:33;12.43;;;9.15;;
21424;SDS011;10873;51.132;16.848;2024-02-28T07:59:01;12.13;;;8.52;;
21424;SDS011;10873;51.132;16.848;2024-02-28T08:01:27;15.48;;;9.05;;
21424;SDS011;10873;51.132;16.848;2024-02-28T08:03:53;10.82;;;8.02;;
21424;SDS011;10873;51.132;16.848;2024-02-28T08:06:23;10.80;;;8.40;;
21424;SDS011;10873;51.132;16.848;2024-02-28T08:08:53;13.05;;;9.18;;
21424;SDS011;10873;51.132;16.848;2024-02-28T08:11:21;11.45;;;8.23;;
21424;SDS011;10873;51.132;16.848;2024-02-28T08:13:47;11.70;;;8.43;;
21424;SDS011;10873;51.132;16.848;2024-02-28T08:16:13;11.75;;;8.48;;
21424;SDS011;10873;51.132;16.848;2024-02-28T08:18:40;11.50;;;8.65;;
21424;SDS011;10873;51.132;16.848;2024-02-28T08:21:06;13.50;;;9.02;;
21424;SDS011;10873;51.132;16.848;2024-02-28T08:23:33;10.75;;;7.72;;
21424;SDS011;10873;51.132;16.848;2024-02-28T08:25:59;11.05;;;8.20;;
21424;SDS011;10873;51.132;16.848;2024-02-28T08:28:25;11.75;;;8.95;;
21424;SDS011;10873;51.132;16.848;2024-02-28T08:30:51;11.32;;;8.13;;
21424;SDS011;10873;51.132;16.848;2024-02-28T08:33:18;12.90;;;8.20;;
21424;SDS011;10873;51.132;16.848;2024-02-28T08:35:44;11.73;;;8.63;;
21424;SDS011;10873;51.132;16.848;2024-02-28T08:38:10;12.45;;;8.60;;
21424;SDS011;10873;51.132;16.848;2024-02-28T08:40:38;12.52;;;8.68;;
21424;SDS011;10873;51.132;16.848;2024-02-28T08:43:07;12.55;;;8.25;;
21424;SDS011;10873;51.132;16.848;2024-02-28T08:45:33;17.42;;;7.50;;
21424;SDS011;10873;51.132;16.848;2024-02-28T08:47:59;10.65;;;7.35;;
21424;SDS011;10873;51.132;16.848;2024-02-28T08:50:26;11.30;;;7.47;;
21424;SDS011;10873;51.132;16.848;2024-02-28T08:52:53;10.60;;;7.75;;
21424;SDS011;10873;51.132;16.848;2024-02-28T08:55:19;11.10;;;7.60;;
21424;SDS011;10873;51.132;16.848;2024-02-28T08:57:47;10.32;;;7.38;;
21424;SDS011;10873;51.132;16.848;2024-02-28T09:00:14;14.57;;;7.55;;
21424;SDS011;10873;51.132;16.848;2024-02-28T09:02:40;10.55;;;7.15;;
21424;SDS011;10873;51.132;16.848;2024-02-28T09:05:07;11.32;;;7.22;;
21424;SDS011;10873;51.132;16.848;2024-02-28T09:07:34;9.60;;;7.05;;
21424;SDS011;10873;51.132;16.848;2024-02-28T09:10:01;9.95;;;6.75;;
21424;SDS011;10873;51.132;16.848;2024-02-28T09:12:29;10.02;;;7.00;;
21424;SDS011;10873;51.132;16.848;2024-02-28T09:15:04;12.77;;;7.18;;
21424;SDS011;10873;51.132;16.848;2024-02-28T09:17:33;9.40;;;6.30;;
21424;SDS011;10873;51.132;16.848;2024-02-28T09:20:01;9.98;;;6.45;;
21424;SDS011;10873;51.132;16.848;2024-02-28T09:22:32;9.23;;;6.80;;
21424;SDS011;10873;51.132;16.848;2024-02-28T09:25:01;8.15;;;6.15;;
21424;SDS011;10873;51.132;16.848;2024-02-28T09:27:30;10.10;;;6.30;;
21424;SDS011;10873;51.132;16.848;2024-02-28T09:29:56;8.20;;;6.03;;
21424;SDS011;10873;51.132;16.848;2024-02-28T09:32:23;9.35;;;5.95;;
21424;SDS011;10873;51.132;16.848;2024-02-28T09:34:50;11.07;;;6.40;;
21424;SDS011;10873;51.132;16.848;2024-02-28T09:37:17;8.77;;;5.70;;
21424;SDS011;10873;51.132;16.848;2024-02-28T09:39:45;7.15;;;5.80;;
21424;SDS011;10873;51.132;16.848;2024-02-28T09:42:12;7.70;;;5.53;;
21424;SDS011;10873;51.132;16.848;2024-02-28T09:44:42;9.40;;;5.63;;
21424;SDS011;10873;51.132;16.848;2024-02-28T09:47:10;6.97;;;5.40;;
21424;SDS011;10873;51.132;16.848;2024-02-28T09:49:38;8.50;;;5.80;;
21424;SDS011;10873;51.132;16.848;2024-02-28T09:52:11;7.15;;;5.65;;
21424;SDS011;10873;51.132;16.848;2024-02-28T09:54:37;7.40;;;5.68;;
21424;SDS011;10873;51.132;16.848;2024-02-28T09:57:04;7.32;;;5.50;;
21424;SDS011;10873;51.132;16.848;2024-02-28T09:59:31;7.43;;;5.47;;
21424;SDS011;10873;51.132;16.848;2024-02-28T10:02:03;7.25;;;4.70;;
21424;SDS011;10873;51.132;16.848;2024-02-28T10:04:31;11.18;;;5.38;;
21424;SDS011;10873;51.132;16.848;2024-02-28T10:07:16;6.80;;;5.30;;
21424;SDS011;10873;51.132;16.848;2024-02-28T10:09:43;6.10;;;4.93;;
21424;SDS011;10873;51.132;16.848;2024-02-28T10:12:10;7.25;;;4.78;;
21424;SDS011;10873;51.132;16.848;2024-02-28T10:14:37;5.68;;;4.38;;
21424;SDS011;10873;51.132;16.848;2024-02-28T10:17:04;6.07;;;4.70;;
21424;SDS011;10873;51.132;16.848;2024-02-28T10:19:31;8.45;;;4.75;;
21424;SDS011;10873;51.132;16.848;2024-02-28T10:21:58;5.40;;;4.35;;
21424;SDS011;10873;51.132;16.848;2024-02-28T10:24:29;7.10;;;4.75;;
21424;SDS011;10873;51.132;16.848;2024-02-28T10:26:55;6.55;;;4.72;;
21424;SDS011;10873;51.132;16.848;2024-02-28T10:29:22;6.28;;;4.35;;
21424;SDS011;10873;51.132;16.848;2024-02-28T10:31:49;6.43;;;4.45;;
21424;SDS011;10873;51.132;16.848;2024-02-28T10:34:15;7.55;;;4.10;;
21424;SDS011;10873;51.132;16.848;2024-02-28T10:36:43;5.30;;;4.03;;
21424;SDS011;10873;51.132;16.848;2024-02-28T10:39:11;4.90;;;3.83;;
21424;SDS011;10873;51.132;16.848;2024-02-28T10:41:39;5.05;;;3.90;;
21424;SDS011;10873;51.132;16.848;2024-02-28T10:44:06;5.38;;;4.20;;
21424;SDS011;10873;51.132;16.848;2024-02-28T10:46:33;12.63;;;4.00;;
21424;SDS011;10873;51.132;16.848;2024-02-28T10:49:00;5.32;;;4.05;;
21424;SDS011;10873;51.132;16.848;2024-02-28T10:51:26;6.35;;;4.38;;
21424;SDS011;10873;51.132;16.848;2024-02-28T10:53:55;6.72;;;3.63;;
21424;SDS011;10873;51.132;16.848;2024-02-28T10:56:31;6.97;;;4.07;;
21424;SDS011;10873;51.132;16.848;2024-02-28T10:58:59;4.00;;;3.60;;
21424;SDS011;10873;51.132;16.848;2024-02-28T11:01:27;5.82;;;3.72;;
21424;SDS011;10873;51.132;16.848;2024-02-28T11:03:53;4.25;;;3.70;;
21424;SDS011;10873;51.132;16.848;2024-02-28T11:06:20;5.68;;;3.60;;
21424;SDS011;10873;51.132;16.848;2024-02-28T11:08:48;3.70;;;3.30;;
21424;SDS011;10873;51.132;16.848;2024-02-28T11:11:20;7.03;;;3.53;;
21424;SDS011;10873;51.132;16.848;2024-02-28T11:13:53;6.47;;;3.70;;
21424;SDS011;10873;51.132;16.848;2024-02-28T11:16:28;4.00;;;3.37;;
21424;SDS011;10873;51.132;16.848;2024-02-28T11:18:54;6.50;;;3.40;;
21424;SDS011;10873;51.132;16.848;2024-02-28T11:21:22;3.78;;;3.38;;
21424;SDS011;10873;51.132;16.848;2024-02-28T11:23:51;5.78;;;3.60;;
21424;SDS011;10873;51.132;16.848;2024-02-28T11:26:18;5.30;;;3.65;;
21424;SDS011;10873;51.132;16.848;2024-02-28T11:28:47;4.68;;;3.45;;
21424;SDS011;10873;51.132;16.848;2024-02-28T11:31:13;5.03;;;3.55;;
21424;SDS011;10873;51.132;16.848;2024-02-28T11:33:42;6.25;;;3.70;;
21424;SDS011;10873;51.132;16.848;2024-02-28T11:36:09;4.33;;;3.37;;
21424;SDS011;10873;51.132;16.848;2024-02-28T11:38:40;4.60;;;3.50;;
21424;SDS011;10873;51.132;16.848;2024-02-28T11:41:07;4.78;;;3.72;;
21424;SDS011;10873;51.132;16.848;2024-02-28T11:43:33;4.88;;;3.58;;
21424;SDS011;10873;51.132;16.848;2024-02-28T11:46:07;4.47;;;3.63;;
21424;SDS011;10873;51.132;16.848;2024-02-28T11:48:34;7.13;;;3.40;;
21424;SDS011;10873;51.132;16.848;2024-02-28T11:51:02;3.92;;;3.53;;
21424;SDS011;10873;51.132;16.848;2024-02-28T11:53:28;5.50;;;3.80;;
21424;SDS011;10873;51.132;16.848;2024-02-28T11:55:54;5.53;;;4.00;;
21424;SDS011;10873;51.132;16.848;2024-02-28T11:58:23;6.70;;;3.78;;
21424;SDS011;10873;51.132;16.848;2024-02-28T12:00:50;7.63;;;4.35;;
21424;SDS011;10873;51.132;16.848;2024-02-28T12:03:21;6.00;;;4.10;;
21424;SDS011;10873;51.132;16.848;2024-02-28T12:05:48;8.40;;;4.32;;
21424;SDS011;10873;51.132;16.848;2024-02-28T12:08:15;12.13;;;4.03;;
21424;SDS011;10873;51.132;16.848;2024-02-28T12:10:47;6.45;;;4.50;;
21424;SDS011;10873;51.132;16.848;2024-02-28T12:13:15;6.20;;;4.27;;
21424;SDS011;10873;51.132;16.848;2024-02-28T12:15:43;9.43;;;4.50;;
21424;SDS011;10873;51.132;16.848;2024-02-28T12:18:14;6.20;;;4.10;;
21424;SDS011;10873;51.132;16.848;2024-02-28T12:20:42;8.20;;;4.32;;
21424;SDS011;10873;51.132;16.848;2024-02-28T12:23:08;7.55;;;3.95;;
21424;SDS011;10873;51.132;16.848;2024-02-28T12:25:35;8.48;;;4.90;;
21424;SDS011;10873;51.132;16.848;2024-02-28T12:28:01;8.10;;;4.50;;
21424;SDS011;10873;51.132;16.848;2024-02-28T12:30:38;5.53;;;3.95;;
21424;SDS011;10873;51.132;16.848;2024-02-28T12:33:06;6.35;;;4.25;;
21424;SDS011;10873;51.132;16.848;2024-02-28T12:35:36;7.60;;;4.57;;
21424;SDS011;10873;51.132;16.848;2024-02-28T12:38:02;6.10;;;4.15;;
21424;SDS011;10873;51.132;16.848;2024-02-28T12:40:29;6.68;;;4.50;;
21424;SDS011;10873;51.132;16.848;2024-02-28T12:42:56;5.43;;;4.35;;
21424;SDS011;10873;51.132;16.848;2024-02-28T12:45:23;5.88;;;4.25;;
21424;SDS011;10873;51.132;16.848;2024-02-28T12:47:48;6.50;;;4.65;;
21424;SDS011;10873;51.132;16.848;2024-02-28T12:50:18;6.75;;;4.32;;
21424;SDS011;10873;51.132;16.848;2024-02-28T12:52:44;8.43;;;4.82;;
21424;SDS011;10873;51.132;16.848;2024-02-28T12:55:11;5.30;;;4.43;;
21424;SDS011;10873;51.132;16.848;2024-02-28T12:57:39;7.18;;;4.80;;
21424;SDS011;10873;51.132;16.848;2024-02-28T13:00:08;6.78;;;4.90;;
21424;SDS011;10873;51.132;16.848;2024-02-28T13:02:35;6.53;;;4.43;;
21424;SDS011;10873;51.132;16.848;2024-02-28T13:05:02;8.15;;;5.70;;
21424;SDS011;10873;51.132;16.848;2024-02-28T13:07:28;8.00;;;5.82;;
21424;SDS011;10873;51.132;16.848;2024-02-28T13:09:55;7.00;;;5.43;;
21424;SDS011;10873;51.132;16.848;2024-02-28T13:12:21;7.38;;;5.53;;
21424;SDS011;10873;51.132;16.848;2024-02-28T13:14:48;9.15;;;5.00;;
21424;SDS011;10873;51.132;16.848;2024-02-28T13:17:14;8.05;;;5.72;;
21424;SDS011;10873;51.132;16.848;2024-02-28T13:19:42;10.20;;;5.78;;
21424;SDS011;10873;51.132;16.848;2024-02-28T13:22:08;8.60;;;5.78;;
21424;SDS011;10873;51.132;16.848;2024-02-28T13:24:34;8.60;;;5.97;;
21424;SDS011;10873;51.132;16.848;2024-02-28T13:27:01;9.50;;;6.07;;
21424;SDS011;10873;51.132;16.848;2024-02-28T13:29:28;9.60;;;6.53;;
21424;SDS011;10873;51.132;16.848;2024-02-28T13:31:59;9.85;;;6.43;;
21424;SDS011;10873;51.132;16.848;2024-02-28T13:34:26;10.75;;;6.22;;
21424;SDS011;10873;51.132;16.848;2024-02-28T13:36:57;8.73;;;6.00;;
21424;SDS011;10873;51.132;16.848;2024-02-28T13:39:23;10.20;;;6.72;;
21424;SDS011;10873;51.132;16.848;2024-02-28T13:41:50;10.77;;;6.40;;
21424;SDS011;10873;51.132;16.848;2024-02-28T13:44:18;9.18;;;6.13;;
21424;SDS011;10873;51.132;16.848;2024-02-28T13:46:44;8.15;;;6.30;;
21424;SDS011;10873;51.132;16.848;2024-02-28T13:49:11;7.53;;;5.85;;
21424;SDS011;10873;51.132;16.848;2024-02-28T13:51:39;8.07;;;6.10;;
21424;SDS011;10873;51.132;16.848;2024-02-28T13:54:07;7.90;;;5.68;;
21424;SDS011;10873;51.132;16.848;2024-02-28T13:56:33;8.30;;;6.27;;
21424;SDS011;10873;51.132;16.848;2024-02-28T13:58:59;8.17;;;6.37;;
21424;SDS011;10873;51.132;16.848;2024-02-28T14:01:26;8.40;;;6.13;;
21424;SDS011;10873;51.132;16.848;2024-02-28T14:03:54;8.02;;;5.78;;
21424;SDS011;10873;51.132;16.848;2024-02-28T14:06:20;8.93;;;5.38;;
21424;SDS011;10873;51.132;16.848;2024-02-28T14:08:47;6.70;;;4.95;;
21424;SDS011;10873;51.132;16.848;2024-02-28T14:11:13;7.95;;;5.47;;
21424;SDS011;10873;51.132;16.848;2024-02-28T14:13:41;7.10;;;5.57;;
21424;SDS011;10873;51.132;16.848;2024-02-28T14:16:07;6.72;;;5.43;;
21424;SDS011;10873;51.132;16.848;2024-02-28T14:18:34;8.13;;;5.22;;